sensor_id;sensor_type;location;lat;lon;timestamp;P1;durP1;ratioP1;P2;durP2;ratioP2
64063;SDS011;50314;50.618;10.642;2022-08-21T00:00:44;3.03;;;2.30;;
64063;SDS011;50314;50.618;10.642;2022-08-21T00:03:10;3.20;;;2.20;;
64063;SDS011;50314;50.618;10.642;2022-08-21T00:05:46;2.80;;;2.13;;
64063;SDS011;50314;50.618;10.642;2022-08-21T00:08:15;2.53;;;1.90;;
64063;SDS011;50314;50.618;10.642;2022-08-21T00:10:42;2.60;;;2.17;;
64063;SDS011;50314;50.618;10.642;2022-08-21T00:13:09;2.67;;;2.13;;
64063;SDS011;50314;50.618;10.642;2022-08-21T00:15:36;2.92;;;2.33;;
64063;SDS011;50314;50.618;10.642;2022-08-21T00:18:04;3.08;;;2.30;;
64063;SDS011;50314;50.618;10.642;2022-08-21T00:20:31;2.75;;;2.10;;
64063;SDS011;50314;50.618;10.642;2022-08-21T00:22:58;2.53;;;2.00;;
64063;SDS011;50314;50.618;10.642;2022-08-21T00:25:23;2.53;;;2.03;;
64063;SDS011;50314;50.618;10.642;2022-08-21T00:27:48;3.08;;;2.25;;
64063;SDS011;50314;50.618;10.642;2022-08-21T00:30:15;2.40;;;2.10;;
64063;SDS011;50314;50.618;10.642;2022-08-21T00:32:42;3.03;;;2.30;;
64063;SDS011;50314;50.618;10.642;2022-08-21T00:35:08;2.42;;;2.20;;
64063;SDS011;50314;50.618;10.642;2022-08-21T00:37:36;2.83;;;2.20;;
64063;SDS011;50314;50.618;10.642;2022-08-21T00:40:02;3.08;;;2.30;;
64063;SDS011;50314;50.618;10.642;2022-08-21T00:42:28;2.45;;;2.25;;
64063;SDS011;50314;50.618;10.642;2022-08-21T00:44:55;2.45;;;1.88;;
64063;SDS011;50314;50.618;10.642;2022-08-21T00:47:21;3.33;;;2.40;;
64063;SDS011;50314;50.618;10.642;2022-08-21T00:49:47;3.25;;;2.20;;
64063;SDS011;50314;50.618;10.642;2022-08-21T00:52:17;2.63;;;2.13;;
64063;SDS011;50314;50.618;10.642;2022-08-21T00:54:47;3.13;;;2.40;;
64063;SDS011;50314;50.618;10.642;2022-08-21T00:57:15;2.45;;;1.95;;
64063;SDS011;50314;50.618;10.642;2022-08-21T00:59:45;2.85;;;2.15;;
64063;SDS011;50314;50.618;10.642;2022-08-21T01:02:15;2.47;;;2.10;;
64063;SDS011;50314;50.618;10.642;2022-08-21T01:04:41;2.95;;;2.22;;
64063;SDS011;50314;50.618;10.642;2022-08-21T01:07:07;2.83;;;2.00;;
64063;SDS011;50314;50.618;10.642;2022-08-21T01:09:33;3.53;;;2.05;;
64063;SDS011;50314;50.618;10.642;2022-08-21T01:11:59;2.72;;;2.03;;
64063;SDS011;50314;50.618;10.642;2022-08-21T01:14:25;3.20;;;1.98;;
64063;SDS011;50314;50.618;10.642;2022-08-21T01:16:51;3.55;;;2.22;;
64063;SDS011;50314;50.618;10.642;2022-08-21T01:19:18;3.63;;;2.10;;
64063;SDS011;50314;50.618;10.642;2022-08-21T01:21:45;3.47;;;2.10;;
64063;SDS011;50314;50.618;10.642;2022-08-21T01:24:11;3.30;;;2.30;;
64063;SDS011;50314;50.618;10.642;2022-08-21T01:26:38;3.15;;;2.30;;
64063;SDS011;50314;50.618;10.642;2022-08-21T01:29:09;3.42;;;2.10;;
64063;SDS011;50314;50.618;10.642;2022-08-21T01:31:55;4.07;;;2.45;;
64063;SDS011;50314;50.618;10.642;2022-08-21T01:34:21;3.67;;;2.25;;
64063;SDS011;50314;50.618;10.642;2022-08-21T01:36:47;3.10;;;2.08;;
64063;SDS011;50314;50.618;10.642;2022-08-21T01:39:12;3.20;;;2.00;;
64063;SDS011;50314;50.618;10.642;2022-08-21T01:41:39;3.33;;;2.35;;
64063;SDS011;50314;50.618;10.642;2022-08-21T01:44:04;3.63;;;2.17;;
64063;SDS011;50314;50.618;10.642;2022-08-21T01:46:30;3.53;;;2.10;;
64063;SDS011;50314;50.618;10.642;2022-08-21T01:48:56;3.10;;;2.05;;
64063;SDS011;50314;50.618;10.642;2022-08-21T01:51:21;3.40;;;1.80;;
64063;SDS011;50314;50.618;10.642;2022-08-21T01:53:47;2.50;;;1.85;;
64063;SDS011;50314;50.618;10.642;2022-08-21T01:56:14;3.03;;;2.35;;
64063;SDS011;50314;50.618;10.642;2022-08-21T01:58:42;3.10;;;2.20;;
64063;SDS011;50314;50.618;10.642;2022-08-21T02:01:09;2.95;;;2.08;;
64063;SDS011;50314;50.618;10.642;2022-08-21T02:03:35;3.38;;;1.88;;
64063;SDS011;50314;50.618;10.642;2022-08-21T02:06:00;2.83;;;1.80;;
64063;SDS011;50314;50.618;10.642;2022-08-21T02:08:27;3.10;;;2.03;;
64063;SDS011;50314;50.618;10.642;2022-08-21T02:10:53;2.75;;;2.15;;
64063;SDS011;50314;50.618;10.642;2022-08-21T02:13:19;3.75;;;2.30;;
64063;SDS011;50314;50.618;10.642;2022-08-21T02:15:45;3.28;;;2.00;;
64063;SDS011;50314;50.618;10.642;2022-08-21T02:18:11;2.80;;;2.00;;
64063;SDS011;50314;50.618;10.642;2022-08-21T02:20:38;2.63;;;2.20;;
64063;SDS011;50314;50.618;10.642;2022-08-21T02:23:06;2.83;;;1.95;;
64063;SDS011;50314;50.618;10.642;2022-08-21T02:25:33;2.67;;;1.92;;
64063;SDS011;50314;50.618;10.642;2022-08-21T02:27:59;2.80;;;2.15;;
64063;SDS011;50314;50.618;10.642;2022-08-21T02:30:30;2.97;;;2.00;;
64063;SDS011;50314;50.618;10.642;2022-08-21T02:32:58;2.70;;;1.85;;
64063;SDS011;50314;50.618;10.642;2022-08-21T02:35:24;2.10;;;1.63;;
64063;SDS011;50314;50.618;10.642;2022-08-21T02:37:51;2.47;;;1.80;;
64063;SDS011;50314;50.618;10.642;2022-08-21T02:40:20;2.45;;;1.90;;
64063;SDS011;50314;50.618;10.642;2022-08-21T02:42:48;2.67;;;1.98;;
64063;SDS011;50314;50.618;10.642;2022-08-21T02:45:13;2.72;;;1.85;;
64063;SDS011;50314;50.618;10.642;2022-08-21T02:47:40;1.92;;;1.60;;
64063;SDS011;50314;50.618;10.642;2022-08-21T02:50:12;2.60;;;1.80;;
64063;SDS011;50314;50.618;10.642;2022-08-21T02:52:37;2.90;;;2.10;;
64063;SDS011;50314;50.618;10.642;2022-08-21T02:55:03;2.25;;;1.58;;
64063;SDS011;50314;50.618;10.642;2022-08-21T02:57:29;2.47;;;1.80;;
64063;SDS011;50314;50.618;10.642;2022-08-21T02:59:57;2.70;;;1.73;;
64063;SDS011;50314;50.618;10.642;2022-08-21T03:02:22;2.00;;;1.58;;
64063;SDS011;50314;50.618;10.642;2022-08-21T03:04:48;2.15;;;1.50;;
64063;SDS011;50314;50.618;10.642;2022-08-21T03:07:13;2.05;;;1.65;;
64063;SDS011;50314;50.618;10.642;2022-08-21T03:09:40;2.08;;;1.67;;
64063;SDS011;50314;50.618;10.642;2022-08-21T03:12:05;2.55;;;1.73;;
64063;SDS011;50314;50.618;10.642;2022-08-21T03:14:31;2.70;;;1.95;;
64063;SDS011;50314;50.618;10.642;2022-08-21T03:16:56;2.03;;;1.65;;
64063;SDS011;50314;50.618;10.642;2022-08-21T03:19:21;2.33;;;1.70;;
64063;SDS011;50314;50.618;10.642;2022-08-21T03:21:47;2.42;;;1.77;;
64063;SDS011;50314;50.618;10.642;2022-08-21T03:24:12;2.70;;;1.75;;
64063;SDS011;50314;50.618;10.642;2022-08-21T03:26:38;2.10;;;1.50;;
64063;SDS011;50314;50.618;10.642;2022-08-21T03:29:03;2.35;;;1.63;;
64063;SDS011;50314;50.618;10.642;2022-08-21T03:31:30;2.83;;;1.92;;
64063;SDS011;50314;50.618;10.642;2022-08-21T03:33:57;2.00;;;1.50;;
64063;SDS011;50314;50.618;10.642;2022-08-21T03:36:23;1.80;;;1.50;;
64063;SDS011;50314;50.618;10.642;2022-08-21T03:38:49;2.17;;;1.45;;
64063;SDS011;50314;50.618;10.642;2022-08-21T03:41:14;2.45;;;1.70;;
64063;SDS011;50314;50.618;10.642;2022-08-21T03:43:39;1.65;;;1.40;;
64063;SDS011;50314;50.618;10.642;2022-08-21T03:46:05;1.67;;;1.40;;
64063;SDS011;50314;50.618;10.642;2022-08-21T03:48:32;1.83;;;1.48;;
64063;SDS011;50314;50.618;10.642;2022-08-21T03:50:58;2.00;;;1.60;;
64063;SDS011;50314;50.618;10.642;2022-08-21T03:53:24;1.73;;;1.50;;
64063;SDS011;50314;50.618;10.642;2022-08-21T03:55:51;1.73;;;1.48;;
64063;SDS011;50314;50.618;10.642;2022-08-21T03:58:18;1.75;;;1.48;;
64063;SDS011;50314;50.618;10.642;2022-08-21T04:00:46;1.73;;;1.55;;
64063;SDS011;50314;50.618;10.642;2022-08-21T04:03:14;1.75;;;1.50;;
64063;SDS011;50314;50.618;10.642;2022-08-21T04:05:40;1.42;;;1.30;;
64063;SDS011;50314;50.618;10.642;2022-08-21T04:08:06;1.60;;;1.40;;
64063;SDS011;50314;50.618;10.642;2022-08-21T04:10:33;1.88;;;1.65;;
64063;SDS011;50314;50.618;10.642;2022-08-21T04:13:00;2.58;;;1.70;;
64063;SDS011;50314;50.618;10.642;2022-08-21T04:15:26;2.30;;;1.30;;
64063;SDS011;50314;50.618;10.642;2022-08-21T04:17:51;1.90;;;1.50;;
64063;SDS011;50314;50.618;10.642;2022-08-21T04:20:18;1.98;;;1.40;;
64063;SDS011;50314;50.618;10.642;2022-08-21T04:22:44;2.35;;;1.75;;
64063;SDS011;50314;50.618;10.642;2022-08-21T04:25:11;1.92;;;1.67;;
64063;SDS011;50314;50.618;10.642;2022-08-21T04:27:37;1.67;;;1.40;;
64063;SDS011;50314;50.618;10.642;2022-08-21T04:30:04;1.75;;;1.48;;
64063;SDS011;50314;50.618;10.642;2022-08-21T04:32:29;1.60;;;1.50;;
64063;SDS011;50314;50.618;10.642;2022-08-21T04:35:04;1.73;;;1.48;;
64063;SDS011;50314;50.618;10.642;2022-08-21T04:37:32;1.80;;;1.40;;
64063;SDS011;50314;50.618;10.642;2022-08-21T04:39:57;1.60;;;1.42;;
64063;SDS011;50314;50.618;10.642;2022-08-21T04:42:24;3.33;;;1.60;;
64063;SDS011;50314;50.618;10.642;2022-08-21T04:44:50;1.70;;;1.30;;
64063;SDS011;50314;50.618;10.642;2022-08-21T04:47:16;2.13;;;1.65;;
64063;SDS011;50314;50.618;10.642;2022-08-21T04:49:41;1.73;;;1.50;;
64063;SDS011;50314;50.618;10.642;2022-08-21T04:52:08;1.70;;;1.35;;
64063;SDS011;50314;50.618;10.642;2022-08-21T04:54:34;1.52;;;1.27;;
64063;SDS011;50314;50.618;10.642;2022-08-21T04:57:00;1.52;;;1.30;;
64063;SDS011;50314;50.618;10.642;2022-08-21T04:59:31;1.45;;;1.35;;
64063;SDS011;50314;50.618;10.642;2022-08-21T05:02:01;1.85;;;1.50;;
64063;SDS011;50314;50.618;10.642;2022-08-21T05:04:28;1.65;;;1.40;;
64063;SDS011;50314;50.618;10.642;2022-08-21T05:06:57;1.52;;;1.30;;
64063;SDS011;50314;50.618;10.642;2022-08-21T05:09:27;1.83;;;1.60;;
64063;SDS011;50314;50.618;10.642;2022-08-21T05:11:53;1.50;;;1.20;;
64063;SDS011;50314;50.618;10.642;2022-08-21T05:14:20;2.13;;;1.63;;
64063;SDS011;50314;50.618;10.642;2022-08-21T05:16:45;1.73;;;1.48;;
64063;SDS011;50314;50.618;10.642;2022-08-21T05:19:11;1.73;;;1.48;;
64063;SDS011;50314;50.618;10.642;2022-08-21T05:21:39;1.90;;;1.55;;
64063;SDS011;50314;50.618;10.642;2022-08-21T05:24:06;2.75;;;1.65;;
64063;SDS011;50314;50.618;10.642;2022-08-21T05:26:32;1.65;;;1.45;;
64063;SDS011;50314;50.618;10.642;2022-08-21T05:28:58;1.77;;;1.50;;
64063;SDS011;50314;50.618;10.642;2022-08-21T05:31:23;1.48;;;1.33;;
64063;SDS011;50314;50.618;10.642;2022-08-21T05:33:49;2.10;;;1.50;;
64063;SDS011;50314;50.618;10.642;2022-08-21T05:36:16;2.15;;;1.65;;
64063;SDS011;50314;50.618;10.642;2022-08-21T05:41:08;1.70;;;1.40;;
64063;SDS011;50314;50.618;10.642;2022-08-21T05:43:34;2.10;;;1.60;;
64063;SDS011;50314;50.618;10.642;2022-08-21T05:46:01;2.10;;;1.60;;
64063;SDS011;50314;50.618;10.642;2022-08-21T05:48:27;2.20;;;1.60;;
64063;SDS011;50314;50.618;10.642;2022-08-21T05:50:53;2.03;;;1.73;;
64063;SDS011;50314;50.618;10.642;2022-08-21T05:53:20;2.00;;;1.40;;
64063;SDS011;50314;50.618;10.642;2022-08-21T05:55:47;2.00;;;1.60;;
64063;SDS011;50314;50.618;10.642;2022-08-21T06:00:46;1.80;;;1.40;;
64063;SDS011;50314;50.618;10.642;2022-08-21T06:03:13;1.92;;;1.73;;
64063;SDS011;50314;50.618;10.642;2022-08-21T06:05:44;2.13;;;1.77;;
64063;SDS011;50314;50.618;10.642;2022-08-21T06:08:10;2.05;;;1.80;;
64063;SDS011;50314;50.618;10.642;2022-08-21T06:10:36;2.20;;;1.80;;
64063;SDS011;50314;50.618;10.642;2022-08-21T06:13:02;2.10;;;1.73;;
64063;SDS011;50314;50.618;10.642;2022-08-21T06:15:28;2.00;;;1.50;;
64063;SDS011;50314;50.618;10.642;2022-08-21T06:17:54;2.50;;;1.90;;
64063;SDS011;50314;50.618;10.642;2022-08-21T06:20:19;2.17;;;1.60;;
64063;SDS011;50314;50.618;10.642;2022-08-21T06:22:46;2.75;;;1.90;;
64063;SDS011;50314;50.618;10.642;2022-08-21T06:25:11;2.55;;;1.77;;
64063;SDS011;50314;50.618;10.642;2022-08-21T06:27:37;2.28;;;2.00;;
64063;SDS011;50314;50.618;10.642;2022-08-21T06:30:03;2.03;;;1.80;;
64063;SDS011;50314;50.618;10.642;2022-08-21T06:32:30;2.75;;;2.17;;
64063;SDS011;50314;50.618;10.642;2022-08-21T06:34:55;2.90;;;2.25;;
64063;SDS011;50314;50.618;10.642;2022-08-21T06:37:21;2.55;;;1.90;;
64063;SDS011;50314;50.618;10.642;2022-08-21T06:39:47;2.25;;;1.95;;
64063;SDS011;50314;50.618;10.642;2022-08-21T06:42:16;2.28;;;2.05;;
64063;SDS011;50314;50.618;10.642;2022-08-21T06:44:42;2.22;;;1.88;;
64063;SDS011;50314;50.618;10.642;2022-08-21T06:47:08;2.22;;;1.95;;
64063;SDS011;50314;50.618;10.642;2022-08-21T06:49:34;2.90;;;2.15;;
64063;SDS011;50314;50.618;10.642;2022-08-21T06:52:00;3.25;;;2.25;;
64063;SDS011;50314;50.618;10.642;2022-08-21T06:54:25;3.03;;;2.10;;
64063;SDS011;50314;50.618;10.642;2022-08-21T06:56:51;2.60;;;2.22;;
64063;SDS011;50314;50.618;10.642;2022-08-21T06:59:16;2.67;;;2.15;;
64063;SDS011;50314;50.618;10.642;2022-08-21T07:01:42;2.80;;;2.17;;
64063;SDS011;50314;50.618;10.642;2022-08-21T07:04:07;2.92;;;2.20;;
64063;SDS011;50314;50.618;10.642;2022-08-21T07:06:33;2.25;;;1.90;;
64063;SDS011;50314;50.618;10.642;2022-08-21T07:08:58;2.58;;;2.22;;
64063;SDS011;50314;50.618;10.642;2022-08-21T07:11:24;2.40;;;2.10;;
64063;SDS011;50314;50.618;10.642;2022-08-21T07:13:50;3.30;;;2.25;;
64063;SDS011;50314;50.618;10.642;2022-08-21T07:16:18;3.85;;;2.10;;
64063;SDS011;50314;50.618;10.642;2022-08-21T07:18:44;2.85;;;2.30;;
64063;SDS011;50314;50.618;10.642;2022-08-21T07:21:10;3.13;;;2.22;;
64063;SDS011;50314;50.618;10.642;2022-08-21T07:23:40;3.97;;;2.30;;
64063;SDS011;50314;50.618;10.642;2022-08-21T07:26:10;2.80;;;2.50;;
64063;SDS011;50314;50.618;10.642;2022-08-21T07:28:36;3.60;;;2.90;;
64063;SDS011;50314;50.618;10.642;2022-08-21T07:31:02;3.58;;;2.80;;
64063;SDS011;50314;50.618;10.642;2022-08-21T07:33:29;3.35;;;2.80;;
64063;SDS011;50314;50.618;10.642;2022-08-21T07:35:57;4.13;;;2.95;;
64063;SDS011;50314;50.618;10.642;2022-08-21T07:38:22;3.30;;;2.70;;
64063;SDS011;50314;50.618;10.642;2022-08-21T07:40:48;5.10;;;2.80;;
64063;SDS011;50314;50.618;10.642;2022-08-21T07:43:16;2.92;;;2.40;;
64063;SDS011;50314;50.618;10.642;2022-08-21T07:48:08;3.60;;;2.40;;
64063;SDS011;50314;50.618;10.642;2022-08-21T07:50:34;3.00;;;2.30;;
64063;SDS011;50314;50.618;10.642;2022-08-21T07:53:00;3.17;;;2.40;;
64063;SDS011;50314;50.618;10.642;2022-08-21T07:55:25;4.18;;;2.40;;
64063;SDS011;50314;50.618;10.642;2022-08-21T07:57:51;3.30;;;2.40;;
64063;SDS011;50314;50.618;10.642;2022-08-21T08:00:20;2.78;;;2.45;;
64063;SDS011;50314;50.618;10.642;2022-08-21T08:02:49;3.78;;;2.50;;
64063;SDS011;50314;50.618;10.642;2022-08-21T08:05:17;4.15;;;2.58;;
64063;SDS011;50314;50.618;10.642;2022-08-21T08:07:43;4.95;;;2.67;;
64063;SDS011;50314;50.618;10.642;2022-08-21T08:10:09;3.67;;;2.13;;
64063;SDS011;50314;50.618;10.642;2022-08-21T08:12:36;3.08;;;2.50;;
64063;SDS011;50314;50.618;10.642;2022-08-21T08:15:04;3.28;;;2.50;;
64063;SDS011;50314;50.618;10.642;2022-08-21T08:17:33;3.00;;;2.10;;
64063;SDS011;50314;50.618;10.642;2022-08-21T08:19:59;2.85;;;2.20;;
64063;SDS011;50314;50.618;10.642;2022-08-21T08:22:26;3.92;;;2.40;;
64063;SDS011;50314;50.618;10.642;2022-08-21T08:24:52;3.15;;;2.20;;
64063;SDS011;50314;50.618;10.642;2022-08-21T08:27:18;3.53;;;1.98;;
64063;SDS011;50314;50.618;10.642;2022-08-21T08:29:44;2.90;;;2.08;;
64063;SDS011;50314;50.618;10.642;2022-08-21T08:32:11;3.85;;;1.90;;
64063;SDS011;50314;50.618;10.642;2022-08-21T08:34:37;3.40;;;2.00;;
64063;SDS011;50314;50.618;10.642;2022-08-21T08:37:04;2.45;;;1.92;;
64063;SDS011;50314;50.618;10.642;2022-08-21T08:39:30;3.67;;;2.00;;
64063;SDS011;50314;50.618;10.642;2022-08-21T08:42:05;3.63;;;2.40;;
64063;SDS011;50314;50.618;10.642;2022-08-21T08:44:35;3.03;;;2.17;;
64063;SDS011;50314;50.618;10.642;2022-08-21T08:47:01;3.33;;;2.13;;
64063;SDS011;50314;50.618;10.642;2022-08-21T08:52:30;3.55;;;2.10;;
64063;SDS011;50314;50.618;10.642;2022-08-21T08:57:31;3.20;;;2.03;;
64063;SDS011;50314;50.618;10.642;2022-08-21T08:59:59;3.95;;;2.38;;
64063;SDS011;50314;50.618;10.642;2022-08-21T09:02:26;3.13;;;2.13;;
64063;SDS011;50314;50.618;10.642;2022-08-21T09:04:55;3.13;;;1.77;;
64063;SDS011;50314;50.618;10.642;2022-08-21T09:16:03;3.30;;;2.00;;
64063;SDS011;50314;50.618;10.642;2022-08-21T09:18:26;2.70;;;2.05;;
64063;SDS011;50314;50.618;10.642;2022-08-21T09:24:00;5.18;;;2.13;;
64063;SDS011;50314;50.618;10.642;2022-08-21T09:27:20;2.88;;;2.20;;
64063;SDS011;50314;50.618;10.642;2022-08-21T09:29:36;3.20;;;1.90;;
64063;SDS011;50314;50.618;10.642;2022-08-21T09:32:26;3.30;;;1.92;;
64063;SDS011;50314;50.618;10.642;2022-08-21T09:35:02;6.80;;;2.67;;
64063;SDS011;50314;50.618;10.642;2022-08-21T09:37:47;3.53;;;2.15;;
64063;SDS011;50314;50.618;10.642;2022-08-21T09:45:46;4.63;;;2.33;;
64063;SDS011;50314;50.618;10.642;2022-08-21T09:48:14;4.80;;;2.03;;
64063;SDS011;50314;50.618;10.642;2022-08-21T09:50:44;3.90;;;2.45;;
64063;SDS011;50314;50.618;10.642;2022-08-21T09:55:49;5.30;;;2.10;;
64063;SDS011;50314;50.618;10.642;2022-08-21T10:01:03;3.17;;;2.10;;
64063;SDS011;50314;50.618;10.642;2022-08-21T10:03:30;3.95;;;2.40;;
64063;SDS011;50314;50.618;10.642;2022-08-21T10:06:00;3.42;;;2.28;;
64063;SDS011;50314;50.618;10.642;2022-08-21T10:08:31;3.72;;;2.17;;
64063;SDS011;50314;50.618;10.642;2022-08-21T10:11:02;4.15;;;2.20;;
64063;SDS011;50314;50.618;10.642;2022-08-21T10:16:15;3.63;;;2.15;;
64063;SDS011;50314;50.618;10.642;2022-08-21T10:21:54;3.47;;;2.22;;
64063;SDS011;50314;50.618;10.642;2022-08-21T10:24:34;3.65;;;2.42;;
64063;SDS011;50314;50.618;10.642;2022-08-21T10:27:16;3.67;;;2.08;;
64063;SDS011;50314;50.618;10.642;2022-08-21T10:29:55;11.77;;;2.95;;
64063;SDS011;50314;50.618;10.642;2022-08-21T10:35:22;3.35;;;1.75;;
64063;SDS011;50314;50.618;10.642;2022-08-21T10:40:38;3.17;;;1.83;;
64063;SDS011;50314;50.618;10.642;2022-08-21T10:46:03;4.43;;;2.20;;
64063;SDS011;50314;50.618;10.642;2022-08-21T10:51:35;4.95;;;2.30;;
64063;SDS011;50314;50.618;10.642;2022-08-21T10:54:44;5.05;;;2.30;;
64063;SDS011;50314;50.618;10.642;2022-08-21T10:57:10;4.13;;;2.05;;
64063;SDS011;50314;50.618;10.642;2022-08-21T11:08:07;4.63;;;1.80;;
64063;SDS011;50314;50.618;10.642;2022-08-21T11:10:39;5.35;;;2.50;;
64063;SDS011;50314;50.618;10.642;2022-08-21T11:13:17;3.45;;;2.00;;
64063;SDS011;50314;50.618;10.642;2022-08-21T11:29:28;3.72;;;1.80;;
64063;SDS011;50314;50.618;10.642;2022-08-21T11:46:17;2.83;;;1.98;;
64063;SDS011;50314;50.618;10.642;2022-08-21T11:51:48;3.25;;;1.77;;
64063;SDS011;50314;50.618;10.642;2022-08-21T11:54:44;3.50;;;1.90;;
64063;SDS011;50314;50.618;10.642;2022-08-21T11:57:21;3.20;;;1.95;;
64063;SDS011;50314;50.618;10.642;2022-08-21T11:59:53;2.22;;;1.73;;
64063;SDS011;50314;50.618;10.642;2022-08-21T12:02:28;3.38;;;1.88;;
64063;SDS011;50314;50.618;10.642;2022-08-21T12:05:44;3.05;;;1.90;;
64063;SDS011;50314;50.618;10.642;2022-08-21T12:07:48;3.22;;;1.98;;
64063;SDS011;50314;50.618;10.642;2022-08-21T12:10:31;2.10;;;1.60;;
64063;SDS011;50314;50.618;10.642;2022-08-21T12:13:06;4.60;;;1.80;;
64063;SDS011;50314;50.618;10.642;2022-08-21T12:15:34;2.38;;;1.52;;
64063;SDS011;50314;50.618;10.642;2022-08-21T12:18:03;2.35;;;1.70;;
64063;SDS011;50314;50.618;10.642;2022-08-21T12:23:31;2.95;;;1.80;;
64063;SDS011;50314;50.618;10.642;2022-08-21T12:28:42;3.17;;;1.63;;
64063;SDS011;50314;50.618;10.642;2022-08-21T12:31:18;3.75;;;1.73;;
64063;SDS011;50314;50.618;10.642;2022-08-21T12:33:47;4.53;;;1.70;;
64063;SDS011;50314;50.618;10.642;2022-08-21T12:36:19;2.25;;;1.48;;
64063;SDS011;50314;50.618;10.642;2022-08-21T12:38:51;2.55;;;1.65;;
64063;SDS011;50314;50.618;10.642;2022-08-21T12:41:32;3.67;;;1.77;;
64063;SDS011;50314;50.618;10.642;2022-08-21T12:44:10;2.55;;;1.70;;
64063;SDS011;50314;50.618;10.642;2022-08-21T12:46:43;2.15;;;1.42;;
64063;SDS011;50314;50.618;10.642;2022-08-21T12:49:14;3.40;;;1.80;;
64063;SDS011;50314;50.618;10.642;2022-08-21T12:51:54;3.00;;;1.63;;
64063;SDS011;50314;50.618;10.642;2022-08-21T12:54:27;2.67;;;1.35;;
64063;SDS011;50314;50.618;10.642;2022-08-21T12:56:58;3.92;;;1.52;;
64063;SDS011;50314;50.618;10.642;2022-08-21T12:59:28;4.78;;;1.70;;
64063;SDS011;50314;50.618;10.642;2022-08-21T13:01:55;3.42;;;1.70;;
64063;SDS011;50314;50.618;10.642;2022-08-21T13:04:34;2.65;;;1.50;;
64063;SDS011;50314;50.618;10.642;2022-08-21T13:07:05;4.18;;;1.65;;
64063;SDS011;50314;50.618;10.642;2022-08-21T13:09:35;3.20;;;1.70;;
64063;SDS011;50314;50.618;10.642;2022-08-21T13:12:07;2.28;;;1.52;;
64063;SDS011;50314;50.618;10.642;2022-08-21T13:14:38;3.20;;;1.60;;
64063;SDS011;50314;50.618;10.642;2022-08-21T13:17:05;3.25;;;1.67;;
64063;SDS011;50314;50.618;10.642;2022-08-21T13:19:32;2.85;;;1.50;;
64063;SDS011;50314;50.618;10.642;2022-08-21T13:21:59;3.00;;;1.83;;
64063;SDS011;50314;50.618;10.642;2022-08-21T13:24:29;2.45;;;1.67;;
64063;SDS011;50314;50.618;10.642;2022-08-21T13:26:58;1.63;;;1.23;;
64063;SDS011;50314;50.618;10.642;2022-08-21T13:29:28;4.72;;;1.65;;
64063;SDS011;50314;50.618;10.642;2022-08-21T13:32:00;3.35;;;1.60;;
64063;SDS011;50314;50.618;10.642;2022-08-21T13:34:36;2.30;;;1.27;;
64063;SDS011;50314;50.618;10.642;2022-08-21T13:37:03;3.13;;;1.77;;
64063;SDS011;50314;50.618;10.642;2022-08-21T13:39:31;4.13;;;1.58;;
64063;SDS011;50314;50.618;10.642;2022-08-21T13:41:58;3.20;;;1.33;;
64063;SDS011;50314;50.618;10.642;2022-08-21T13:44:35;2.90;;;1.80;;
64063;SDS011;50314;50.618;10.642;2022-08-21T13:49:32;2.20;;;1.50;;
64063;SDS011;50314;50.618;10.642;2022-08-21T13:52:00;2.35;;;1.80;;
64063;SDS011;50314;50.618;10.642;2022-08-21T13:54:33;2.42;;;1.40;;
64063;SDS011;50314;50.618;10.642;2022-08-21T13:57:01;3.22;;;1.40;;
64063;SDS011;50314;50.618;10.642;2022-08-21T13:59:27;3.22;;;1.55;;
64063;SDS011;50314;50.618;10.642;2022-08-21T14:01:56;1.95;;;1.48;;
64063;SDS011;50314;50.618;10.642;2022-08-21T14:04:31;2.35;;;1.40;;
64063;SDS011;50314;50.618;10.642;2022-08-21T14:07:00;1.80;;;1.30;;
64063;SDS011;50314;50.618;10.642;2022-08-21T14:09:31;2.35;;;1.35;;
64063;SDS011;50314;50.618;10.642;2022-08-21T14:12:04;2.15;;;1.17;;
64063;SDS011;50314;50.618;10.642;2022-08-21T14:14:39;2.60;;;1.50;;
64063;SDS011;50314;50.618;10.642;2022-08-21T14:17:06;1.73;;;1.45;;
64063;SDS011;50314;50.618;10.642;2022-08-21T14:19:52;3.53;;;1.60;;
64063;SDS011;50314;50.618;10.642;2022-08-21T14:27:31;3.28;;;1.35;;
64063;SDS011;50314;50.618;10.642;2022-08-21T14:32:29;2.20;;;1.60;;
64063;SDS011;50314;50.618;10.642;2022-08-21T14:35:06;2.38;;;1.40;;
64063;SDS011;50314;50.618;10.642;2022-08-21T14:37:32;1.92;;;1.30;;
64063;SDS011;50314;50.618;10.642;2022-08-21T14:39:58;1.80;;;1.30;;
64063;SDS011;50314;50.618;10.642;2022-08-21T14:42:23;2.55;;;1.48;;
64063;SDS011;50314;50.618;10.642;2022-08-21T14:44:49;2.42;;;1.38;;
64063;SDS011;50314;50.618;10.642;2022-08-21T14:47:15;3.08;;;1.50;;
64063;SDS011;50314;50.618;10.642;2022-08-21T14:49:41;1.63;;;1.15;;
64063;SDS011;50314;50.618;10.642;2022-08-21T14:52:06;2.20;;;1.40;;
64063;SDS011;50314;50.618;10.642;2022-08-21T14:54:32;1.75;;;1.10;;
64063;SDS011;50314;50.618;10.642;2022-08-21T14:56:58;1.50;;;1.20;;
64063;SDS011;50314;50.618;10.642;2022-08-21T14:59:27;2.30;;;1.30;;
64063;SDS011;50314;50.618;10.642;2022-08-21T15:01:52;4.90;;;1.15;;
64063;SDS011;50314;50.618;10.642;2022-08-21T15:04:21;2.20;;;1.30;;
64063;SDS011;50314;50.618;10.642;2022-08-21T15:06:46;2.88;;;1.40;;
64063;SDS011;50314;50.618;10.642;2022-08-21T15:09:12;2.80;;;1.30;;
64063;SDS011;50314;50.618;10.642;2022-08-21T15:11:37;2.38;;;1.20;;
64063;SDS011;50314;50.618;10.642;2022-08-21T15:14:03;1.90;;;1.20;;
64063;SDS011;50314;50.618;10.642;2022-08-21T15:16:32;2.08;;;1.23;;
64063;SDS011;50314;50.618;10.642;2022-08-21T15:18:59;1.40;;;1.17;;
64063;SDS011;50314;50.618;10.642;2022-08-21T15:21:24;3.95;;;1.58;;
64063;SDS011;50314;50.618;10.642;2022-08-21T15:23:50;2.08;;;1.30;;
64063;SDS011;50314;50.618;10.642;2022-08-21T15:26:16;2.22;;;1.40;;
64063;SDS011;50314;50.618;10.642;2022-08-21T15:28:41;2.17;;;1.38;;
64063;SDS011;50314;50.618;10.642;2022-08-21T15:31:07;1.80;;;1.40;;
64063;SDS011;50314;50.618;10.642;2022-08-21T15:33:33;2.13;;;1.27;;
64063;SDS011;50314;50.618;10.642;2022-08-21T15:35:58;1.88;;;1.40;;
64063;SDS011;50314;50.618;10.642;2022-08-21T15:38:24;2.03;;;1.23;;
64063;SDS011;50314;50.618;10.642;2022-08-21T15:40:49;3.95;;;1.20;;
64063;SDS011;50314;50.618;10.642;2022-08-21T15:43:26;4.03;;;1.38;;
64063;SDS011;50314;50.618;10.642;2022-08-21T15:45:54;1.98;;;1.20;;
64063;SDS011;50314;50.618;10.642;2022-08-21T15:48:20;1.88;;;1.20;;
64063;SDS011;50314;50.618;10.642;2022-08-21T15:50:46;2.10;;;1.10;;
64063;SDS011;50314;50.618;10.642;2022-08-21T15:53:11;1.83;;;1.13;;
64063;SDS011;50314;50.618;10.642;2022-08-21T15:55:37;2.03;;;1.27;;
64063;SDS011;50314;50.618;10.642;2022-08-21T15:58:04;2.70;;;1.20;;
64063;SDS011;50314;50.618;10.642;2022-08-21T16:00:31;2.17;;;1.40;;
64063;SDS011;50314;50.618;10.642;2022-08-21T16:02:59;2.85;;;1.20;;
64063;SDS011;50314;50.618;10.642;2022-08-21T16:05:25;1.70;;;1.30;;
64063;SDS011;50314;50.618;10.642;2022-08-21T16:07:51;2.83;;;1.40;;
64063;SDS011;50314;50.618;10.642;2022-08-21T16:10:18;2.15;;;1.30;;
64063;SDS011;50314;50.618;10.642;2022-08-21T16:12:47;2.08;;;1.30;;
64063;SDS011;50314;50.618;10.642;2022-08-21T16:15:18;1.92;;;1.40;;
64063;SDS011;50314;50.618;10.642;2022-08-21T16:17:44;3.90;;;1.63;;
64063;SDS011;50314;50.618;10.642;2022-08-21T16:20:17;1.27;;;1.02;;
64063;SDS011;50314;50.618;10.642;2022-08-21T16:22:45;1.60;;;1.25;;
64063;SDS011;50314;50.618;10.642;2022-08-21T16:25:12;2.63;;;1.30;;
64063;SDS011;50314;50.618;10.642;2022-08-21T16:27:39;1.63;;;1.30;;